New York, New York
Current Conditions -  °F | °C
As of 2:51 PM on Tuesday 21 Oct 2014 (Local Time) from KNYC Reporting Station
Broken Clouds Broken Clouds  
Wind Chill: 66°   Ceiling: 11000
Heat Index: 66°   Visibility: 10mi
Dew Point: 51°   Wind: 8mph
Humidity: 59%   Direction: 130°SE
Pressure: 29.86"   Gusts: NA
Location:  40.71°N, 74.01°W
Report Text: KNYC 211851Z AUTO 13007KT 080V180 10SM SCT028 SCT100 BKN110 19/11 A2986 RMK AO2 SLP101 T01890106 $
Loading
Personal Weather Stations






























Interactive Weather Map New forecast layout! Learn more

10-Day Weather Forecast

Advertisements
Track Severe Weather on mobile